TAR67F LMML-DTTA
Flight info
| Callsign | TAR67F |
|---|---|
| Flight time | N/A |
| Altitude | 22000 |
| Route | GZO M978 SONAK |
| Aircraft | A320/M-SDE3FGHIRWY/LB1 |
Departure
| Time | 2026-04-28 19:40 |
|---|---|
| Airport | Malta International Airport (LMML) |
Arrival
| Time | N/A |
|---|---|
| Airport | Tunis Carthage International Airport (DTTA) |
| Time | Latitude | Longitude | Altitude | Speed | Heading |
|---|---|---|---|---|---|
| 2026-04-28 19:31 | 35.85548 | 14.48345 | 272 ft | 0 kts | 2° |
| 2026-04-28 19:34 | 35.85564 | 14.48344 | 272 ft | 6 kts | 354° |
| 2026-04-28 19:34 | 35.85589 | 14.48318 | 272 ft | 2 kts | 215° |
| 2026-04-28 19:34 | 35.85581 | 14.48329 | 279 ft | 4 kts | 134° |
| 2026-04-28 19:34 | 35.85557 | 14.48362 | 276 ft | 5 kts | 130° |
| 2026-04-28 19:35 | 35.85532 | 14.48384 | 272 ft | 4 kts | 154° |
| 2026-04-28 19:35 | 35.85515 | 14.48399 | 272 ft | 3 kts | 142° |
| 2026-04-28 19:35 | 35.85493 | 14.48425 | 272 ft | 6 kts | 136° |
| 2026-04-28 19:35 | 35.85457 | 14.48469 | 272 ft | 9 kts | 142° |
| 2026-04-28 19:36 | 35.85419 | 14.48451 | 272 ft | 5 kts | 259° |
| 2026-04-28 19:36 | 35.85435 | 14.48419 | 272 ft | 4 kts | 314° |
| 2026-04-28 19:36 | 35.85457 | 14.48392 | 272 ft | 3 kts | 315° |
| 2026-04-28 19:36 | 35.85471 | 14.48375 | 272 ft | 4 kts | 314° |
| 2026-04-28 19:37 | 35.85507 | 14.48329 | 272 ft | 13 kts | 314° |
| 2026-04-28 19:37 | 35.85560 | 14.48257 | 272 ft | 18 kts | 322° |
| 2026-04-28 19:37 | 35.85664 | 14.48204 | 272 ft | 4 kts | 301° |
| 2026-04-28 19:37 | 35.85662 | 14.48149 | 272 ft | 10 kts | 269° |
| 2026-04-28 19:38 | 35.85661 | 14.48072 | 272 ft | 9 kts | 268° |
| 2026-04-28 19:38 | 35.85670 | 14.47995 | 272 ft | 12 kts | 285° |
| 2026-04-28 19:38 | 35.85623 | 14.47923 | 272 ft | 11 kts | 184° |
| 2026-04-28 19:38 | 35.85597 | 14.47937 | 272 ft | 0 kts | 141° |
| 2026-04-28 19:39 | 35.85591 | 14.47943 | 272 ft | 11 kts | 141° |
| 2026-04-28 19:39 | 35.85331 | 14.48265 | 272 ft | 88 kts | 134° |
| 2026-04-28 19:39 | 35.84768 | 14.48966 | 259 ft | 141 kts | 136° |
| 2026-04-28 19:39 | 35.83973 | 14.49905 | 440 ft | 167 kts | 134° |
| 2026-04-28 19:40 | 35.83127 | 14.50901 | 912 ft | 170 kts | 135° |
| 2026-04-28 19:40 | 35.82117 | 14.51641 | 1475 ft | 171 kts | 164° |
| 2026-04-28 19:40 | 35.80937 | 14.51626 | 2080 ft | 172 kts | 192° |
| 2026-04-28 19:40 | 35.79863 | 14.51003 | 2687 ft | 169 kts | 204° |
| 2026-04-28 19:41 | 35.78704 | 14.50739 | 2904 ft | 180 kts | 169° |